sensor_id;sensor_type;location;lat;lon;timestamp;P1;durP1;ratioP1;P2;durP2;ratioP2
1164;SDS011;571;50.930;6.926;2023-04-25T02:46:48;14.87;;;7.10;;
1164;SDS011;571;50.930;6.926;2023-04-25T02:49:55;9.10;;;4.80;;
1164;SDS011;571;50.930;6.926;2023-04-25T02:52:50;8.43;;;4.97;;
1164;SDS011;571;50.930;6.926;2023-04-25T02:55:24;9.30;;;4.30;;
1164;SDS011;571;50.930;6.926;2023-04-25T03:03:59;12.80;;;4.57;;
1164;SDS011;571;50.930;6.926;2023-04-25T03:07:22;11.90;;;5.27;;
1164;SDS011;571;50.930;6.926;2023-04-25T03:10:25;10.83;;;5.13;;
1164;SDS011;571;50.930;6.926;2023-04-25T03:13:01;10.83;;;3.60;;
1164;SDS011;571;50.930;6.926;2023-04-25T03:15:55;8.87;;;5.10;;
1164;SDS011;571;50.930;6.926;2023-04-25T03:22:49;7.37;;;4.30;;
1164;SDS011;571;50.930;6.926;2023-04-25T03:24:53;7.77;;;4.73;;
1164;SDS011;571;50.930;6.926;2023-04-25T03:27:44;12.07;;;5.40;;
1164;SDS011;571;50.930;6.926;2023-04-25T03:30:30;8.40;;;4.63;;
1164;SDS011;571;50.930;6.926;2023-04-25T03:33:25;6.97;;;4.77;;
1164;SDS011;571;50.930;6.926;2023-04-25T03:36:19;24.67;;;6.43;;
1164;SDS011;571;50.930;6.926;2023-04-25T03:43:23;13.13;;;5.97;;
1164;SDS011;571;50.930;6.926;2023-04-25T03:44:57;10.50;;;5.43;;
1164;SDS011;571;50.930;6.926;2023-04-25T03:57:03;11.43;;;6.10;;
1164;SDS011;571;50.930;6.926;2023-04-25T04:03:10;14.67;;;7.30;;
1164;SDS011;571;50.930;6.926;2023-04-25T04:06:01;7.03;;;5.83;;
1164;SDS011;571;50.930;6.926;2023-04-25T04:08:37;13.17;;;5.07;;
1164;SDS011;571;50.930;6.926;2023-04-25T04:14:29;6.63;;;3.97;;
1164;SDS011;571;50.930;6.926;2023-04-25T04:17:04;8.80;;;4.77;;
1164;SDS011;571;50.930;6.926;2023-04-25T04:19:54;8.40;;;5.10;;
1164;SDS011;571;50.930;6.926;2023-04-25T04:23:13;7.53;;;4.30;;
1164;SDS011;571;50.930;6.926;2023-04-25T04:29:25;4.63;;;2.70;;
1164;SDS011;571;50.930;6.926;2023-04-25T04:32:08;17.63;;;5.27;;
1164;SDS011;571;50.930;6.926;2023-04-25T04:34:53;11.20;;;5.87;;
1164;SDS011;571;50.930;6.926;2023-04-25T04:37:59;7.27;;;4.50;;
1164;SDS011;571;50.930;6.926;2023-04-25T04:40:50;7.60;;;5.00;;
1164;SDS011;571;50.930;6.926;2023-04-25T04:43:30;7.20;;;4.80;;
1164;SDS011;571;50.930;6.926;2023-04-25T04:46:28;7.67;;;5.23;;
1164;SDS011;571;50.930;6.926;2023-04-25T04:49:20;6.43;;;4.80;;
1164;SDS011;571;50.930;6.926;2023-04-25T04:51:56;8.90;;;4.47;;
1164;SDS011;571;50.930;6.926;2023-04-25T04:57:22;6.47;;;4.00;;
1164;SDS011;571;50.930;6.926;2023-04-25T04:59:53;10.20;;;5.80;;
1164;SDS011;571;50.930;6.926;2023-04-25T05:02:28;9.33;;;5.90;;
1164;SDS011;571;50.930;6.926;2023-04-25T05:05:02;7.77;;;5.23;;
1164;SDS011;571;50.930;6.926;2023-04-25T05:07:39;7.90;;;4.43;;
1164;SDS011;571;50.930;6.926;2023-04-25T05:10:32;10.57;;;6.90;;
1164;SDS011;571;50.930;6.926;2023-04-25T05:13:04;16.50;;;6.50;;
1164;SDS011;571;50.930;6.926;2023-04-25T05:15:39;13.37;;;5.90;;
1164;SDS011;571;50.930;6.926;2023-04-25T05:18:39;13.50;;;5.20;;
1164;SDS011;571;50.930;6.926;2023-04-25T05:21:11;21.77;;;6.47;;
1164;SDS011;571;50.930;6.926;2023-04-25T05:23:52;15.73;;;6.60;;
1164;SDS011;571;50.930;6.926;2023-04-25T06:07:44;14.87;;;6.03;;
1164;SDS011;571;50.930;6.926;2023-04-25T06:10:23;12.63;;;6.10;;
1164;SDS011;571;50.930;6.926;2023-04-25T06:13:09;10.27;;;5.30;;
1164;SDS011;571;50.930;6.926;2023-04-25T06:15:45;8.80;;;5.87;;
1164;SDS011;571;50.930;6.926;2023-04-25T06:18:24;15.67;;;5.87;;
1164;SDS011;571;50.930;6.926;2023-04-25T06:21:06;16.37;;;6.00;;
1164;SDS011;571;50.930;6.926;2023-04-25T06:24:02;12.97;;;6.07;;
1164;SDS011;571;50.930;6.926;2023-04-25T06:26:43;11.27;;;5.67;;
1164;SDS011;571;50.930;6.926;2023-04-25T06:29:24;7.10;;;5.00;;
1164;SDS011;571;50.930;6.926;2023-04-25T06:32:32;12.47;;;5.27;;
1164;SDS011;571;50.930;6.926;2023-04-25T06:34:57;10.30;;;5.30;;
1164;SDS011;571;50.930;6.926;2023-04-25T06:37:31;7.87;;;4.80;;
1164;SDS011;571;50.930;6.926;2023-04-25T06:43:16;14.60;;;5.63;;
1164;SDS011;571;50.930;6.926;2023-04-25T06:45:51;14.47;;;5.47;;
1164;SDS011;571;50.930;6.926;2023-04-25T06:48:36;8.07;;;5.10;;
1164;SDS011;571;50.930;6.926;2023-04-25T06:51:20;11.40;;;4.50;;
1164;SDS011;571;50.930;6.926;2023-04-25T06:54:04;16.27;;;6.07;;
1164;SDS011;571;50.930;6.926;2023-04-25T06:56:43;12.33;;;4.47;;
1164;SDS011;571;50.930;6.926;2023-04-25T06:59:33;16.10;;;6.97;;
1164;SDS011;571;50.930;6.926;2023-04-25T07:02:46;9.63;;;5.23;;
1164;SDS011;571;50.930;6.926;2023-04-25T07:05:21;12.53;;;4.83;;
1164;SDS011;571;50.930;6.926;2023-04-25T07:07:50;8.97;;;4.87;;
1164;SDS011;571;50.930;6.926;2023-04-25T07:10:30;9.77;;;3.73;;
1164;SDS011;571;50.930;6.926;2023-04-25T07:13:18;13.53;;;4.40;;
1164;SDS011;571;50.930;6.926;2023-04-25T07:15:50;8.33;;;4.53;;
1164;SDS011;571;50.930;6.926;2023-04-25T07:18:33;9.60;;;3.53;;
1164;SDS011;571;50.930;6.926;2023-04-25T07:21:06;13.60;;;3.87;;
1164;SDS011;571;50.930;6.926;2023-04-25T07:23:42;8.50;;;4.90;;
1164;SDS011;571;50.930;6.926;2023-04-25T07:26:20;11.63;;;4.30;;
1164;SDS011;571;50.930;6.926;2023-04-25T07:28:51;16.03;;;5.53;;
1164;SDS011;571;50.930;6.926;2023-04-25T07:31:28;7.73;;;2.80;;
1164;SDS011;571;50.930;6.926;2023-04-25T07:34:09;5.83;;;3.00;;
1164;SDS011;571;50.930;6.926;2023-04-25T07:36:43;6.87;;;3.30;;
1164;SDS011;571;50.930;6.926;2023-04-25T07:39:18;5.93;;;3.50;;
1164;SDS011;571;50.930;6.926;2023-04-25T07:41:52;5.83;;;1.30;;
1164;SDS011;571;50.930;6.926;2023-04-25T07:44:41;6.73;;;2.50;;
1164;SDS011;571;50.930;6.926;2023-04-25T07:47:11;10.30;;;4.20;;
1164;SDS011;571;50.930;6.926;2023-04-25T07:49:54;9.70;;;3.73;;
1164;SDS011;571;50.930;6.926;2023-04-25T07:52:28;7.07;;;4.47;;
1164;SDS011;571;50.930;6.926;2023-04-25T07:55:00;6.77;;;4.00;;
1164;SDS011;571;50.930;6.926;2023-04-25T07:57:32;15.57;;;3.77;;
1164;SDS011;571;50.930;6.926;2023-04-25T08:00:07;9.40;;;4.70;;
1164;SDS011;571;50.930;6.926;2023-04-25T08:02:50;6.90;;;3.43;;
1164;SDS011;571;50.930;6.926;2023-04-25T08:08:10;5.37;;;3.50;;
1164;SDS011;571;50.930;6.926;2023-04-25T08:11:02;7.57;;;2.53;;
1164;SDS011;571;50.930;6.926;2023-04-25T08:13:38;6.53;;;2.87;;
1164;SDS011;571;50.930;6.926;2023-04-25T08:16:20;9.17;;;3.80;;
1164;SDS011;571;50.930;6.926;2023-04-25T08:19:07;9.00;;;3.70;;
1164;SDS011;571;50.930;6.926;2023-04-25T08:21:38;7.90;;;3.63;;
1164;SDS011;571;50.930;6.926;2023-04-25T08:24:23;6.57;;;3.17;;
1164;SDS011;571;50.930;6.926;2023-04-25T08:27:18;10.57;;;3.50;;
1164;SDS011;571;50.930;6.926;2023-04-25T08:29:52;7.23;;;3.00;;
1164;SDS011;571;50.930;6.926;2023-04-25T08:32:32;5.10;;;2.90;;
1164;SDS011;571;50.930;6.926;2023-04-25T08:35:21;8.07;;;5.10;;
1164;SDS011;571;50.930;6.926;2023-04-25T08:38:14;8.27;;;4.20;;
1164;SDS011;571;50.930;6.926;2023-04-25T08:40:59;6.83;;;2.97;;
1164;SDS011;571;50.930;6.926;2023-04-25T08:43:49;6.97;;;3.13;;
1164;SDS011;571;50.930;6.926;2023-04-25T08:46:35;5.90;;;3.20;;
1164;SDS011;571;50.930;6.926;2023-04-25T08:49:32;3.33;;;2.17;;
1164;SDS011;571;50.930;6.926;2023-04-25T09:18:32;12.63;;;3.27;;
1164;SDS011;571;50.930;6.926;2023-04-25T09:21:42;7.60;;;3.07;;
1164;SDS011;571;50.930;6.926;2023-04-25T09:28:05;3.80;;;1.77;;
1164;SDS011;571;50.930;6.926;2023-04-25T09:31:11;8.40;;;2.43;;
1164;SDS011;571;50.930;6.926;2023-04-25T09:51:25;5.37;;;1.90;;
1164;SDS011;571;50.930;6.926;2023-04-25T09:54:11;7.80;;;2.60;;
1164;SDS011;571;50.930;6.926;2023-04-25T14:16:00;2.50;;;1.00;;
1164;SDS011;571;50.930;6.926;2023-04-25T14:22:50;5.23;;;1.47;;
1164;SDS011;571;50.930;6.926;2023-04-25T14:27:57;5.23;;;1.70;;
1164;SDS011;571;50.930;6.926;2023-04-25T14:57:56;4.63;;;1.27;;
1164;SDS011;571;50.930;6.926;2023-04-25T15:04:12;3.10;;;1.80;;
1164;SDS011;571;50.930;6.926;2023-04-25T15:07:40;2.60;;;1.57;;
1164;SDS011;571;50.930;6.926;2023-04-25T16:10:51;2.90;;;1.57;;
1164;SDS011;571;50.930;6.926;2023-04-25T16:14:05;4.87;;;1.70;;
1164;SDS011;571;50.930;6.926;2023-04-25T16:16:51;2.70;;;1.23;;
